Time;durP1;ratioP1;P1;durP2;ratioP2;P2;SDS_P1;SDS_P2;PMS_P1;PMS_P2;Temp;Humidity;BMP_temperature;BMP_pressure;BME280_temperature;BME280_humidity;BME280_pressure;Samples;Min_cycle;Max_cycle;Signal;HPM_P1;HPM_P2
2021/08/06 14:21:49;;;;;;;7.93;7.63;;;23.80;13.70;;;;;;5068687;28;20544;-70
2021/08/06 14:24:15;;;;;;;8.10;7.80;;;23.80;13.30;;;;;;5068515;28;20454;-70
2021/08/06 14:26:44;;;;;;;8.63;8.33;;;23.80;12.70;;;;;;5068704;28;20196;-73
2021/08/06 14:29:10;;;;;;;8.50;8.20;;;23.90;12.50;;;;;;5053205;28;20185;-67
2021/08/06 14:31:35;;;;;;;8.90;8.60;;;24.00;12.30;;;;;;5048470;28;20397;-65
2021/08/06 14:34:01;;;;;;;9.23;8.73;;;24.10;12.30;;;;;;5042944;23;20224;-68
2021/08/06 14:36:27;;;;;;;8.97;8.57;;;24.20;12.40;;;;;;5008560;28;20541;-69
2021/08/06 14:38:52;;;;;;;9.27;8.87;;;24.30;13.60;;;;;;5008209;28;20687;-69
2021/08/06 14:41:18;;;;;;;9.60;9.10;;;24.50;12.30;;;;;;5007881;28;20208;-69
2021/08/06 14:43:43;;;;;;;8.87;8.47;;;24.50;12.60;;;;;;5008345;28;20657;-69
2021/08/06 14:46:09;;;;;;;9.60;9.20;;;24.50;12.00;;;;;;5008114;28;20303;-69
2021/08/06 14:48:36;;;;;;;9.10;8.80;;;24.40;12.70;;;;;;5008467;28;20187;-69
2021/08/06 14:51:01;;;;;;;9.20;8.80;;;24.40;14.40;;;;;;5007736;28;20219;-70
2021/08/06 14:53:27;;;;;;;9.10;8.70;;;24.30;18.40;;;;;;4988610;28;20448;-70
2021/08/06 14:55:53;;;;;;;8.57;8.27;;;;;;;;;;4988457;28;20662;-71
2021/08/06 14:58:18;;;;;;;9.20;8.80;;;23.80;25.00;;;;;;4987240;28;20192;-70
2021/08/06 15:00:44;;;;;;;9.50;9.10;;;23.80;12.40;;;;;;4987983;28;20861;-70
2021/08/06 15:03:10;;;;;;;9.00;8.60;;;23.60;12.10;;;;;;4988434;28;20214;-70
2021/08/06 15:05:38;;;;;;;8.30;8.00;;;23.50;13.90;;;;;;5007660;28;20179;-70
2021/08/06 15:08:05;;;;;;;8.73;8.43;;;23.50;14.20;;;;;;5006376;28;20532;-70
2021/08/06 15:10:33;;;;;;;9.53;9.13;;;23.50;13.80;;;;;;5007793;28;20695;-70
2021/08/06 15:12:59;;;;;;;8.80;8.40;;;23.60;13.80;;;;;;5008459;28;20802;-70
2021/08/06 15:15:24;;;;;;;10.27;9.17;;;23.70;14.60;;;;;;5003280;28;20424;-69
2021/08/06 15:17:50;;;;;;;9.27;8.87;;;23.90;13.60;;;;;;4989356;28;20543;-69
2021/08/06 15:20:18;;;;;;;9.20;8.60;;;24.00;13.50;;;;;;4987997;28;20694;-70
2021/08/06 15:22:44;;;;;;;9.00;8.70;;;24.20;14.10;;;;;;4980731;28;20188;-69
2021/08/06 15:25:10;;;;;;;9.97;9.33;;;24.30;12.70;;;;;;4987158;28;20443;-69
2021/08/06 15:27:35;;;;;;;9.03;8.50;;;24.40;12.00;;;;;;4984599;28;20812;-69
2021/08/06 15:30:02;;;;;;;9.07;8.77;;;24.30;13.00;;;;;;4987907;28;20204;-69
2021/08/06 15:32:28;;;;;;;9.30;8.80;;;24.20;13.10;;;;;;4979954;28;20235;-69
2021/08/06 15:34:53;;;;;;;9.63;9.13;;;24.10;13.10;;;;;;4975776;28;20468;-69
2021/08/06 15:37:19;;;;;;;9.20;8.70;;;24.00;13.60;;;;;;4976235;28;20189;-69
2021/08/06 15:39:47;;;;;;;9.53;9.13;;;24.00;13.60;;;;;;4985322;28;20263;-69
2021/08/06 15:42:13;;;;;;;8.67;8.37;;;24.00;13.40;;;;;;4995778;28;20225;-69
2021/08/06 15:44:39;;;;;;;9.60;9.00;;;24.00;14.40;;;;;;4995860;28;20444;-70
2021/08/06 15:47:08;;;;;;;9.27;8.87;;;23.90;14.00;;;;;;4978739;28;20177;-69
2021/08/06 15:49:33;;;;;;;9.70;9.20;;;23.70;14.00;;;;;;4974484;28;20493;-69
2021/08/06 15:51:59;;;;;;;9.00;8.60;;;23.60;13.70;;;;;;4974643;28;20417;-69
2021/08/06 15:54:24;;;;;;;8.47;8.10;;;23.40;14.30;;;;;;4991180;28;20299;-69
2021/08/06 15:56:50;;;;;;;9.07;8.57;;;23.40;14.80;;;;;;4992326;28;20634;-70
2021/08/06 15:59:16;;;;;;;8.80;8.50;;;23.30;15.20;;;;;;4993582;28;20598;-70
2021/08/06 16:01:41;;;;;;;9.23;8.53;;;23.20;15.00;;;;;;4982068;28;20276;-69
2021/08/06 16:04:07;;;;;;;8.17;7.83;;;23.20;14.40;;;;;;4971621;28;20205;-68
2021/08/06 16:06:32;;;;;;;8.73;8.33;;;23.20;15.30;;;;;;4981764;28;20247;-69
2021/08/06 16:08:58;;;;;;;8.27;7.87;;;23.10;15.30;;;;;;4993134;28;20185;-68
2021/08/06 16:11:24;;;;;;;8.00;7.23;;;23.00;15.40;;;;;;4976811;28;20315;-69
2021/08/06 16:13:50;;;;;;;8.13;7.63;;;23.00;15.80;;;;;;4972937;28;20193;-69
2021/08/06 16:16:15;;;;;;;8.57;7.87;;;23.00;15.90;;;;;;4972626;28;20223;-70
2021/08/06 16:18:41;;;;;;;8.60;8.00;;;22.90;16.10;;;;;;4983813;28;20216;-70
2021/08/06 16:21:09;;;;;;;7.40;7.10;;;22.90;16.10;;;;;;4992128;28;20396;-70
2021/08/06 16:23:36;;;;;;;7.90;7.40;;;23.00;16.20;;;;;;4993299;28;20242;-69
2021/08/06 16:26:02;;;;;;;7.53;7.23;;;23.00;16.50;;;;;;4993351;28;20820;-69
2021/08/06 16:28:27;;;;;;;7.13;6.83;;;22.90;16.30;;;;;;4993290;28;20419;-69
2021/08/06 16:30:53;;;;;;;7.50;7.20;;;22.70;16.60;;;;;;4992785;28;20201;-69
2021/08/06 16:33:19;;;;;;;7.37;7.07;;;22.70;16.50;;;;;;4976337;28;20205;-69
2021/08/06 16:35:44;;;;;;;7.13;6.83;;;22.60;16.90;;;;;;4973837;28;20224;-69
2021/08/06 16:38:10;;;;;;;7.67;7.27;;;22.60;17.00;;;;;;4973714;28;20644;-69
2021/08/06 16:40:36;;;;;;;7.60;7.10;;;22.50;17.10;;;;;;4972064;28;20181;-69
2021/08/06 16:43:03;;;;;;;7.20;6.80;;;22.40;17.60;;;;;;4972905;28;20429;-69
2021/08/06 16:45:29;;;;;;;7.30;7.00;;;22.40;17.70;;;;;;4974201;28;20674;-69
2021/08/06 16:47:54;;;;;;;6.90;6.50;;;22.50;17.30;;;;;;4991652;28;20428;-69
2021/08/06 16:50:20;;;;;;;7.63;7.00;;;22.50;17.90;;;;;;4992437;28;20235;-69
2021/08/06 16:52:46;;;;;;;11.40;7.20;;;22.50;17.10;;;;;;4992685;28;20172;-69
2021/08/06 16:55:11;;;;;;;7.50;6.90;;;22.50;16.80;;;;;;4991265;28;20585;-69
2021/08/06 16:57:37;;;;;;;8.67;8.17;;;22.50;17.70;;;;;;4980610;28;20173;-69
2021/08/06 17:00:06;;;;;;;7.47;7.03;;;22.50;16.60;;;;;;4978040;28;20539;-69
2021/08/06 17:02:32;;;;;;;7.73;7.23;;;22.50;17.00;;;;;;4992041;28;20419;-69
2021/08/06 17:04:57;;;;;;;7.20;6.70;;;22.50;16.90;;;;;;4975840;28;20802;-69
2021/08/06 17:07:23;;;;;;;7.07;6.77;;;22.50;17.50;;;;;;4973095;28;20631;-68
2021/08/06 17:09:49;;;;;;;6.93;6.33;;;22.50;18.30;;;;;;4973074;28;20205;-70
2021/08/06 17:12:15;;;;;;;6.60;6.27;;;22.40;17.70;;;;;;4972857;28;20413;-69
2021/08/06 17:14:40;;;;;;;7.00;6.70;;;22.40;18.00;;;;;;4988991;28;20292;-69
2021/08/06 17:17:06;;;;;;;6.60;6.10;;;22.40;18.10;;;;;;4975878;28;20829;-69
2021/08/06 17:19:34;;;;;;;7.07;6.67;;;22.40;18.50;;;;;;4972458;28;20309;-70
2021/08/06 17:21:59;;;;;;;7.17;6.73;;;22.40;17.50;;;;;;4972670;28;20631;-70
2021/08/06 17:24:25;;;;;;;6.57;6.27;;;22.40;17.90;;;;;;4972916;28;20447;-70
2021/08/06 17:26:51;;;;;;;7.23;6.63;;;22.40;18.10;;;;;;4976861;28;20179;-69
2021/08/06 17:29:16;;;;;;;12.83;6.73;;;22.40;18.20;;;;;;4992076;28;20432;-69
2021/08/06 17:31:42;;;;;;;10.13;5.67;;;22.40;18.80;;;;;;4992186;28;20216;-69
2021/08/06 17:34:08;;;;;;;9.53;8.03;;;22.30;18.10;;;;;;4991501;28;20239;-69
2021/08/06 17:36:34;;;;;;;5.50;5.30;;;22.20;18.10;;;;;;4991917;28;20553;-69
2021/08/06 17:38:59;;;;;;;6.50;6.07;;;22.10;18.70;;;;;;4986297;28;20185;-70
2021/08/06 17:41:25;;;;;;;6.43;6.13;;;22.10;18.00;;;;;;4972296;28;20495;-70
2021/08/06 17:43:51;;;;;;;6.00;5.60;;;22.10;18.90;;;;;;4972128;28;20684;-69
2021/08/06 17:46:17;;;;;;;7.50;6.60;;;22.00;20.20;;;;;;4972184;28;20421;-69
2021/08/06 17:48:43;;;;;;;6.90;6.53;;;21.90;19.10;;;;;;4972008;28;20447;-69
2021/08/06 17:51:09;;;;;;;9.23;6.07;;;21.90;19.50;;;;;;4978745;28;20589;-69
2021/08/06 17:53:35;;;;;;;6.00;5.60;;;21.80;19.50;;;;;;4975689;28;20756;-70
2021/08/06 17:56:00;;;;;;;5.87;5.57;;;21.80;20.50;;;;;;4972070;28;20421;-68
2021/08/06 17:58:26;;;;;;;6.07;5.57;;;21.70;20.30;;;;;;4972127;28;20734;-69
2021/08/06 18:00:52;;;;;;;5.90;5.50;;;21.70;20.30;;;;;;4971081;28;20595;-69
2021/08/06 18:03:20;;;;;;;5.37;5.07;;;21.60;19.90;;;;;;4972651;28;20193;-69
2021/08/06 18:05:45;;;;;;;5.30;5.00;;;21.60;21.00;;;;;;4972540;28;20189;-70
2021/08/06 18:08:11;;;;;;;5.30;5.00;;;21.60;20.10;;;;;;4972828;28;20528;-69
2021/08/06 18:10:37;;;;;;;4.87;4.57;;;21.50;20.40;;;;;;4973020;28;20200;-69
2021/08/06 18:13:02;;;;;;;5.40;4.97;;;21.50;20.80;;;;;;4972590;28;20651;-69
2021/08/06 18:15:28;;;;;;;4.97;4.77;;;21.40;20.10;;;;;;4971317;28;20209;-68
2021/08/06 18:17:55;;;;;;;5.57;5.17;;;21.40;20.00;;;;;;4972434;28;20511;-69
2021/08/06 18:20:23;;;;;;;4.70;4.50;;;21.40;20.40;;;;;;4988069;28;20176;-69
2021/08/06 18:22:50;;;;;;;4.60;4.30;;;21.40;20.30;;;;;;4991119;28;20846;-71
2021/08/06 18:25:16;;;;;;;5.40;4.63;;;21.30;21.10;;;;;;4992345;28;20411;-69
2021/08/06 18:27:42;;;;;;;4.67;4.37;;;21.20;21.10;;;;;;4980076;28;20425;-70
2021/08/06 18:30:09;;;;;;;4.80;4.50;;;21.20;21.40;;;;;;4972670;28;20463;-69
2021/08/06 18:32:35;;;;;;;4.90;4.40;;;21.20;21.80;;;;;;4982310;28;20442;-69
2021/08/06 18:35:00;;;;;;;3.87;3.67;;;21.10;21.50;;;;;;4972387;28;20460;-69
2021/08/06 18:37:26;;;;;;;4.90;4.50;;;21.10;21.70;;;;;;4973076;28;20232;-69
2021/08/06 18:39:51;;;;;;;3.73;3.53;;;21.10;22.00;;;;;;4972747;28;20227;-69
2021/08/06 18:42:17;;;;;;;4.53;4.20;;;21.00;22.20;;;;;;4968340;28;20221;-68
2021/08/06 18:44:43;;;;;;;3.67;3.37;;;21.00;21.80;;;;;;4970638;28;20209;-69
2021/08/06 18:47:08;;;;;;;4.00;3.70;;;20.90;21.50;;;;;;4982030;28;20185;-69
2021/08/06 18:49:34;;;;;;;3.40;3.20;;;20.80;22.40;;;;;;4968695;28;20650;-68
2021/08/06 18:52:00;;;;;;;3.43;3.23;;;20.70;23.00;;;;;;4972200;28;20177;-68
2021/08/06 18:54:25;;;;;;;4.17;3.37;;;20.60;23.60;;;;;;4972118;28;20346;-69
2021/08/06 18:56:51;;;;;;;3.57;3.10;;;20.50;24.40;;;;;;4971871;28;20181;-68
2021/08/06 18:59:16;;;;;;;3.03;2.73;;;20.40;25.40;;;;;;4980824;28;20267;-69
2021/08/06 19:01:42;;;;;;;4.40;3.57;;;20.30;25.50;;;;;;4991652;28;20223;-68
2021/08/06 19:04:08;;;;;;;2.10;1.80;;;20.10;25.40;;;;;;4991701;28;20193;-69
2021/08/06 19:06:34;;;;;;;2.90;2.47;;;20.00;26.30;;;;;;4992599;28;20176;-67
2021/08/06 19:09:00;;;;;;;2.87;2.57;;;19.80;26.60;;;;;;4993797;28;20510;-68
2021/08/06 19:11:27;;;;;;;2.03;1.83;;;19.70;27.10;;;;;;4986970;28;20571;-68
2021/08/06 19:13:53;;;;;;;4.60;2.40;;;19.60;27.80;;;;;;4971447;28;20440;-68
2021/08/06 19:16:18;;;;;;;2.50;1.73;;;19.50;28.00;;;;;;4971008;28;20417;-68
2021/08/06 19:18:44;;;;;;;2.50;1.90;;;19.40;28.30;;;;;;4971916;28;20188;-69
2021/08/06 19:21:10;;;;;;;2.07;1.87;;;19.30;28.40;;;;;;4982485;28;20608;-67
2021/08/06 19:23:36;;;;;;;2.07;1.63;;;19.20;28.80;;;;;;4984562;28;20205;-69
2021/08/06 19:26:03;;;;;;;2.53;1.60;;;19.20;28.90;;;;;;4971701;28;20276;-68
2021/08/06 19:28:37;;;;;;;4.33;2.30;;;19.20;28.90;;;;;;4971405;28;20425;-68
2021/08/06 19:31:05;;;;;;;3.97;2.30;;;19.10;28.80;;;;;;4970955;28;20859;-67
2021/08/06 19:33:31;;;;;;;2.30;1.73;;;19.10;28.90;;;;;;4970909;28;20448;-68
2021/08/06 19:35:56;;;;;;;3.50;1.90;;;19.00;28.80;;;;;;4970735;28;20795;-68
2021/08/06 19:38:22;;;;;;;5.47;2.13;;;19.00;29.40;;;;;;4970909;28;20178;-68
2021/08/06 19:40:47;;;;;;;3.50;1.90;;;18.90;29.10;;;;;;4971039;28;20189;-68
2021/08/06 19:43:13;;;;;;;8.67;2.00;;;18.90;28.90;;;;;;4971464;28;20579;-68
2021/08/06 19:45:38;;;;;;;1.60;1.40;;;18.90;28.70;;;;;;4963585;28;20193;-69
2021/08/06 19:48:05;;;;;;;2.77;1.60;;;18.80;28.60;;;;;;4969477;28;20188;-68
2021/08/06 19:50:30;;;;;;;2.93;1.77;;;18.80;28.90;;;;;;4973190;28;20209;-68
2021/08/06 19:52:56;;;;;;;8.23;1.93;;;18.80;29.00;;;;;;4974225;28;20425;-68
2021/08/06 19:55:21;;;;;;;1.40;1.30;;;18.80;28.60;;;;;;4974876;28;20183;-69
2021/08/06 19:57:47;;;;;;;10.47;1.90;;;18.80;28.60;;;;;;4974005;28;20181;-68
2021/08/06 20:00:14;;;;;;;6.90;2.80;;;18.80;28.70;;;;;;4973524;28;20566;-68
2021/08/06 20:02:41;;;;;;;2.40;1.73;;;18.80;28.60;;;;;;4978555;28;20185;-67
2021/08/06 20:05:08;;;;;;;1.87;1.60;;;18.80;28.90;;;;;;4975090;28;20518;-67
2021/08/06 20:07:34;;;;;;;1.70;1.40;;;18.70;29.00;;;;;;4976653;28;20429;-68
2021/08/06 20:10:00;;;;;;;2.20;1.77;;;18.70;29.00;;;;;;4983701;28;20459;-67
2021/08/06 20:12:25;;;;;;;1.93;1.67;;;18.70;29.00;;;;;;4975953;28;20182;-67
2021/08/06 20:14:51;;;;;;;4.30;2.03;;;18.60;28.90;;;;;;4971056;28;20671;-68
2021/08/06 20:17:17;;;;;;;8.70;1.50;;;18.60;28.50;;;;;;4969011;28;20560;-68
2021/08/06 20:19:43;;;;;;;2.07;1.83;;;18.50;29.10;;;;;;4969543;28;20177;-68
2021/08/06 20:22:10;;;;;;;1.83;1.53;;;18.50;28.90;;;;;;4972675;28;20181;-67
2021/08/06 20:24:35;;;;;;;3.20;1.97;;;18.40;29.80;;;;;;4989169;28;20451;-67
2021/08/06 20:27:01;;;;;;;2.27;1.93;;;18.40;29.50;;;;;;4993270;28;20420;-68
2021/08/06 20:29:27;;;;;;;9.30;1.77;;;18.30;29.70;;;;;;4993485;28;20192;-68
2021/08/06 20:31:53;;;;;;;2.60;1.33;;;18.20;29.90;;;;;;4993627;28;20208;-68
2021/08/06 20:34:19;;;;;;;1.50;1.20;;;18.20;29.90;;;;;;4980334;28;20221;-68
2021/08/06 20:36:44;;;;;;;2.10;1.33;;;18.20;29.90;;;;;;4974203;28;20790;-67
2021/08/06 20:39:10;;;;;;;3.97;1.30;;;18.10;29.90;;;;;;4974298;28;20184;-67
2021/08/06 20:41:36;;;;;;;2.60;1.63;;;18.10;30.00;;;;;;4974487;28;20320;-66
2021/08/06 20:44:01;;;;;;;8.90;2.20;;;18.00;30.10;;;;;;4974623;28;20566;-67
2021/08/06 20:46:27;;;;;;;2.20;1.93;;;18.00;30.30;;;;;;4974574;28;20271;-69
2021/08/06 20:48:53;;;;;;;2.53;1.60;;;18.00;30.20;;;;;;4990017;28;20435;-68
2021/08/06 20:51:19;;;;;;;2.87;1.70;;;18.00;30.40;;;;;;4993209;28;20542;-67
2021/08/06 20:53:45;;;;;;;1.90;1.60;;;17.90;30.40;;;;;;4993261;28;20196;-69
2021/08/06 20:56:10;;;;;;;3.17;1.77;;;17.90;30.40;;;;;;4993119;28;20526;-67
2021/08/06 20:58:37;;;;;;;2.90;1.87;;;17.80;30.80;;;;;;4993141;28;20180;-67
2021/08/06 21:01:03;;;;;;;4.60;2.20;;;17.70;31.40;;;;;;4973644;28;20186;-67
2021/08/06 21:03:29;;;;;;;5.37;2.30;;;17.70;32.40;;;;;;4973827;28;20437;-68
2021/08/06 21:05:55;;;;;;;3.10;2.50;;;17.60;31.40;;;;;;4973863;28;20426;-68
2021/08/06 21:08:20;;;;;;;2.80;1.87;;;17.60;31.70;;;;;;4974049;28;20472;-68
2021/08/06 21:10:46;;;;;;;3.03;1.80;;;17.60;31.60;;;;;;4973354;28;20492;-67
2021/08/06 21:13:12;;;;;;;3.00;1.90;;;17.50;31.90;;;;;;4987408;28;20526;-67
2021/08/06 21:15:38;;;;;;;2.40;1.63;;;17.50;32.10;;;;;;4992752;28;20422;-67
2021/08/06 21:18:03;;;;;;;9.53;1.70;;;17.50;32.10;;;;;;4992844;28;20407;-68
2021/08/06 21:20:29;;;;;;;2.10;1.70;;;17.50;31.70;;;;;;4992352;28;20239;-68
2021/08/06 21:22:55;;;;;;;2.73;2.13;;;17.50;32.00;;;;;;4992584;28;20199;-68
2021/08/06 21:25:21;;;;;;;3.73;1.70;;;17.50;32.40;;;;;;4975745;28;20436;-68
2021/08/06 21:27:47;;;;;;;2.30;1.60;;;17.50;32.80;;;;;;4971326;28;20196;-68
2021/08/06 21:30:16;;;;;;;2.00;1.40;;;17.50;32.30;;;;;;4970515;28;20295;-68
2021/08/06 21:32:42;;;;;;;2.70;1.70;;;17.50;32.30;;;;;;4973652;28;20185;-69
2021/08/06 21:35:09;;;;;;;3.63;1.90;;;17.50;32.20;;;;;;4952009;29;20464;-68
2021/08/06 21:37:35;;;;;;;1.97;1.63;;;17.50;32.30;;;;;;4951777;28;20422;-68
2021/08/06 21:40:01;;;;;;;3.23;2.63;;;17.40;32.20;;;;;;4952141;28;20422;-68
2021/08/06 21:42:26;;;;;;;4.60;2.03;;;17.40;32.10;;;;;;4952206;29;20430;-68
2021/08/06 21:44:52;;;;;;;3.37;1.97;;;17.40;32.10;;;;;;4953017;28;20497;-68
2021/08/06 21:47:17;;;;;;;2.20;1.60;;;17.50;32.30;;;;;;4952066;29;20628;-67
2021/08/06 21:49:43;;;;;;;2.70;1.90;;;17.50;32.30;;;;;;4952939;28;20185;-68
2021/08/06 21:52:09;;;;;;;3.20;1.77;;;17.40;32.30;;;;;;4953298;28;20179;-68
2021/08/06 21:54:34;;;;;;;3.47;2.13;;;17.30;31.20;;;;;;4953217;28;20253;-68
2021/08/06 21:57:00;;;;;;;4.83;3.40;;;17.30;32.20;;;;;;4953208;28;20256;-70
2021/08/06 21:59:26;;;;;;;4.50;3.00;;;17.30;32.20;;;;;;4952839;28;20182;-69
2021/08/06 22:01:51;;;;;;;6.10;3.70;;;17.20;32.00;;;;;;4953098;28;20200;-68
2021/08/06 22:04:17;;;;;;;3.73;3.43;;;17.20;32.70;;;;;;4952978;28;20594;-68
2021/08/06 22:06:43;;;;;;;4.07;2.83;;;17.20;33.40;;;;;;4952964;28;20193;-68
2021/08/06 22:09:08;;;;;;;3.70;2.27;;;17.20;33.30;;;;;;4952935;28;20178;-69
2021/08/06 22:11:34;;;;;;;2.07;1.60;;;17.20;33.40;;;;;;4952835;28;20213;-68
2021/08/06 22:14:00;;;;;;;2.13;1.57;;;17.20;32.70;;;;;;4953041;28;20284;-68
2021/08/06 22:16:26;;;;;;;3.07;2.33;;;17.20;33.20;;;;;;4953087;28;20174;-68
2021/08/06 22:18:52;;;;;;;5.20;1.77;;;17.10;32.70;;;;;;4952483;28;20409;-68
2021/08/06 22:21:17;;;;;;;7.80;3.07;;;17.10;33.00;;;;;;4952923;28;20437;-66
2021/08/06 22:23:43;;;;;;;3.47;2.40;;;17.10;33.20;;;;;;4952784;28;20249;-68
2021/08/06 22:26:09;;;;;;;3.30;2.60;;;17.10;34.80;;;;;;4952725;28;20604;-67
2021/08/06 22:28:36;;;;;;;4.90;3.20;;;17.10;42.50;;;;;;4952648;28;20453;-69
2021/08/06 22:31:02;;;;;;;4.20;3.50;;;17.00;33.40;;;;;;4952362;28;20485;-67
2021/08/06 22:33:27;;;;;;;9.40;3.47;;;16.90;34.10;;;;;;4952440;28;20508;-67
2021/08/06 22:35:53;;;;;;;4.33;3.40;;;16.90;39.80;;;;;;4952497;28;20489;-69
2021/08/06 22:38:18;;;;;;;5.07;2.33;;;16.80;33.90;;;;;;4952609;29;20206;-68
2021/08/06 22:40:44;;;;;;;4.07;2.10;;;16.90;34.20;;;;;;4952246;28;20233;-68
2021/08/06 22:43:10;;;;;;;5.43;2.40;;;16.90;34.30;;;;;;4955550;28;20198;-68
2021/08/06 22:45:37;;;;;;;3.53;2.53;;;16.80;34.90;;;;;;4956507;28;20190;-67
2021/08/06 22:48:03;;;;;;;5.10;2.73;;;16.80;35.10;;;;;;4956454;28;20422;-68
2021/08/06 22:50:29;;;;;;;5.90;3.17;;;16.80;35.80;;;;;;4956153;28;20560;-68
2021/08/06 22:52:54;;;;;;;3.20;2.10;;;16.70;35.10;;;;;;4956441;28;20496;-68
2021/08/06 22:55:20;;;;;;;3.43;2.20;;;16.80;36.40;;;;;;4956284;28;20693;-69
2021/08/06 22:57:45;;;;;;;8.40;1.77;;;16.80;36.10;;;;;;4956461;28;20193;-68
2021/08/06 23:00:12;;;;;;;2.83;2.07;;;16.80;35.90;;;;;;4956169;28;20205;-67
2021/08/06 23:02:37;;;;;;;3.67;1.73;;;16.80;35.60;;;;;;4956722;28;20632;-69
2021/08/06 23:05:04;;;;;;;1.90;1.50;;;16.70;35.80;;;;;;4956763;28;20449;-68
2021/08/06 23:07:29;;;;;;;6.57;1.80;;;16.60;36.10;;;;;;4956397;28;20193;-67
2021/08/06 23:09:55;;;;;;;3.07;1.73;;;16.50;36.70;;;;;;4955799;28;20448;-67
2021/08/06 23:12:20;;;;;;;3.13;2.17;;;16.40;36.60;;;;;;4956127;28;20186;-68
2021/08/06 23:14:47;;;;;;;4.03;2.27;;;16.30;36.90;;;;;;4955892;28;20202;-68
2021/08/06 23:17:13;;;;;;;2.10;1.80;;;16.20;37.40;;;;;;4955751;28;20233;-69
2021/08/06 23:19:38;;;;;;;2.30;1.73;;;16.20;37.90;;;;;;4955597;28;20418;-68
2021/08/06 23:22:04;;;;;;;2.20;1.70;;;16.10;39.50;;;;;;4955983;28;20409;-68
2021/08/06 23:24:30;;;;;;;3.67;1.60;;;16.10;38.90;;;;;;4955592;28;20198;-68
2021/08/06 23:26:56;;;;;;;3.10;1.80;;;16.10;38.50;;;;;;4955636;28;20245;-68
2021/08/06 23:29:21;;;;;;;2.67;1.63;;;16.10;38.80;;;;;;4955536;28;20899;-67
2021/08/06 23:31:47;;;;;;;1.93;1.40;;;16.10;38.50;;;;;;4955762;28;20619;-68
2021/08/06 23:34:12;;;;;;;3.00;1.90;;;16.10;38.60;;;;;;4955844;28;20213;-68
2021/08/06 23:36:38;;;;;;;1.67;1.33;;;16.20;38.10;;;;;;4954344;29;20182;-68
2021/08/06 23:39:04;;;;;;;2.13;1.53;;;16.20;38.20;;;;;;4955210;28;20182;-67
2021/08/06 23:41:29;;;;;;;1.47;1.00;;;16.20;37.80;;;;;;4955438;28;20693;-67
2021/08/06 23:43:55;;;;;;;10.60;1.57;;;16.20;37.60;;;;;;4955348;28;20206;-68
2021/08/06 23:46:20;;;;;;;1.90;1.40;;;16.20;37.90;;;;;;4955345;28;20225;-69
2021/08/06 23:48:46;;;;;;;2.47;1.83;;;16.10;37.70;;;;;;4955035;28;20189;-68
2021/08/06 23:51:11;;;;;;;11.73;1.90;;;16.10;37.70;;;;;;4955186;28;20248;-67
2021/08/06 23:53:37;;;;;;;4.63;1.90;;;16.10;40.60;;;;;;4954852;28;20282;-68
2021/08/06 23:56:03;;;;;;;4.00;1.50;;;16.00;38.90;;;;;;4955156;28;20177;-68
2021/08/06 23:58:28;;;;;;;7.37;1.47;;;16.10;36.70;;;;;;4955294;28;20200;-68
